Time;durP1;ratioP1;P1;durP2;ratioP2;P2;SDS_P1;SDS_P2;PMS_P1;PMS_P2;Temp;Humidity;BMP_temperature;BMP_pressure;BME280_temperature;BME280_humidity;BME280_pressure;Samples;Min_cycle;Max_cycle;Signal;HPM_P1;HPM_P2
2023/09/15 00:01:13;;;;;;;5.82;1.92;;;14.40;99.90;;;;;;5021195;28;20025;-67
2023/09/15 00:03:39;;;;;;;3.35;1.77;;;14.40;99.90;;;;;;5037668;28;20030;-67
2023/09/15 00:06:05;;;;;;;8.02;1.88;;;14.30;99.90;;;;;;5021824;28;20026;-67
2023/09/15 00:08:31;;;;;;;5.00;2.10;;;14.30;99.90;;;;;;5021452;28;20021;-67
2023/09/15 00:10:56;;;;;;;4.85;2.10;;;14.30;99.90;;;;;;5021325;28;20051;-67
2023/09/15 00:13:22;;;;;;;6.78;2.15;;;14.20;99.90;;;;;;5038525;28;20085;-67
2023/09/15 00:15:51;;;;;;;3.03;1.85;;;14.30;99.90;;;;;;5021046;28;20071;-68
2023/09/15 00:18:18;;;;;;;7.85;2.30;;;14.20;99.90;;;;;;5020848;28;20025;-67
2023/09/15 00:20:44;;;;;;;6.30;2.25;;;14.10;99.90;;;;;;5038170;28;20017;-68
2023/09/15 00:23:10;;;;;;;4.25;1.98;;;14.00;99.90;;;;;;5038135;28;20086;-68
2023/09/15 00:25:36;;;;;;;5.25;1.90;;;14.00;99.90;;;;;;5021564;28;20088;-68
2023/09/15 00:28:03;;;;;;;6.07;1.80;;;14.10;99.90;;;;;;5038665;28;20034;-68
2023/09/15 00:30:29;;;;;;;10.35;2.55;;;14.10;99.90;;;;;;5037928;28;20163;-68
2023/09/15 00:32:56;;;;;;;4.40;1.88;;;14.10;99.90;;;;;;5020870;28;20022;-68
2023/09/15 00:35:25;;;;;;;5.85;1.73;;;14.00;99.90;;;;;;5020716;28;20031;-67
2023/09/15 00:37:51;;;;;;;5.75;2.20;;;14.00;99.90;;;;;;5020794;28;20029;-68
2023/09/15 00:40:20;;;;;;;8.02;2.45;;;14.00;99.90;;;;;;5020552;28;20108;-68
2023/09/15 00:42:47;;;;;;;4.60;1.80;;;13.80;99.90;;;;;;5020557;28;20116;-68
2023/09/15 00:45:18;;;;;;;3.50;1.70;;;13.70;99.90;;;;;;5020395;28;20057;-69
2023/09/15 00:47:47;;;;;;;4.68;1.80;;;13.80;99.90;;;;;;5020322;28;20026;-72
2023/09/15 00:50:18;;;;;;;5.25;2.35;;;13.90;99.90;;;;;;5037592;28;20076;-71
2023/09/15 00:52:45;;;;;;;2.85;1.42;;;13.90;99.90;;;;;;5020670;28;20030;-71
2023/09/15 00:55:13;;;;;;;5.20;1.55;;;13.90;99.90;;;;;;5020518;28;20027;-71
2023/09/15 00:57:39;;;;;;;4.35;1.58;;;13.80;99.90;;;;;;5020132;28;20032;-71
2023/09/15 01:00:14;;;;;;;4.43;2.15;;;13.80;99.90;;;;;;5037613;28;20017;-71
2023/09/15 01:02:43;;;;;;;6.38;2.20;;;13.70;99.90;;;;;;5020218;28;20056;-71
2023/09/15 01:05:19;;;;;;;9.32;1.95;;;13.80;99.90;;;;;;5020702;28;20071;-67
2023/09/15 01:07:47;;;;;;;5.20;1.70;;;13.80;99.90;;;;;;5037680;28;20097;-68
2023/09/15 01:10:14;;;;;;;6.47;1.88;;;13.80;99.90;;;;;;5037639;28;20087;-66
2023/09/15 01:12:41;;;;;;;5.68;1.92;;;13.80;99.90;;;;;;5019930;28;20064;-67
2023/09/15 01:15:07;;;;;;;5.18;2.05;;;13.80;99.90;;;;;;5036993;28;20026;-71
2023/09/15 01:17:45;;;;;;;5.78;1.77;;;13.80;99.90;;;;;;5037162;28;20018;-71
2023/09/15 01:20:21;;;;;;;4.50;1.65;;;13.70;99.90;;;;;;5037498;28;20021;-71
2023/09/15 01:23:10;;;;;;;4.95;1.45;;;13.60;99.90;;;;;;5037295;28;20025;-71
2023/09/15 01:26:10;;;;;;;3.35;1.50;;;13.50;99.90;;;;;;5037057;28;20025;-71
2023/09/15 01:28:47;;;;;;;5.15;1.90;;;13.50;99.90;;;;;;5037419;28;20084;-71
2023/09/15 01:31:13;;;;;;;7.45;1.98;;;13.50;99.90;;;;;;5037121;28;20025;-71
2023/09/15 01:33:38;;;;;;;9.82;1.90;;;13.40;99.90;;;;;;5037321;28;20029;-71
2023/09/15 01:36:04;;;;;;;8.50;1.88;;;13.50;99.90;;;;;;5036974;28;20120;-71
2023/09/15 01:38:31;;;;;;;3.22;1.63;;;13.50;99.90;;;;;;5019681;28;20021;-71
2023/09/15 01:40:57;;;;;;;4.00;2.08;;;13.50;99.90;;;;;;5037119;28;20029;-71
2023/09/15 01:43:22;;;;;;;4.18;2.00;;;13.40;99.90;;;;;;5019725;28;20025;-71
2023/09/15 01:45:48;;;;;;;5.65;1.98;;;13.50;99.90;;;;;;5019506;28;20048;-71
2023/09/15 01:48:14;;;;;;;7.68;1.60;;;13.40;99.90;;;;;;5019704;28;20025;-68
2023/09/15 01:50:41;;;;;;;2.85;1.50;;;13.40;99.90;;;;;;5036947;28;20030;-68
2023/09/15 01:53:07;;;;;;;6.10;1.95;;;13.20;99.90;;;;;;5019497;28;20037;-67
2023/09/15 01:55:33;;;;;;;5.88;2.10;;;13.20;99.90;;;;;;5036749;28;20030;-66
2023/09/15 01:57:59;;;;;;;3.65;1.70;;;13.10;99.90;;;;;;5036815;28;20101;-67
2023/09/15 02:00:31;;;;;;;6.82;2.05;;;13.00;99.90;;;;;;5019862;28;20072;-67
2023/09/15 02:02:57;;;;;;;3.15;1.58;;;13.00;99.90;;;;;;5037023;28;20014;-67
2023/09/15 02:05:24;;;;;;;3.40;1.75;;;13.10;99.90;;;;;;5019335;28;20136;-67
2023/09/15 02:07:50;;;;;;;2.33;1.63;;;13.10;99.90;;;;;;5037206;28;20044;-68
2023/09/15 02:10:15;;;;;;;3.63;1.70;;;13.10;99.90;;;;;;5036624;28;20021;-68
2023/09/15 02:12:41;;;;;;;2.33;1.42;;;13.20;99.90;;;;;;5019459;28;20024;-71
2023/09/15 02:15:07;;;;;;;5.97;1.73;;;13.30;99.90;;;;;;5019361;28;20029;-71
2023/09/15 02:17:32;;;;;;;3.38;1.70;;;13.20;99.90;;;;;;5036591;28;20052;-71
2023/09/15 02:19:58;;;;;;;3.45;1.50;;;13.20;99.90;;;;;;5036626;28;20029;-71
2023/09/15 02:22:24;;;;;;;3.25;1.67;;;13.20;99.90;;;;;;5036484;28;20101;-71
2023/09/15 02:24:50;;;;;;;3.35;1.60;;;13.10;99.90;;;;;;5019350;28;20018;-71
2023/09/15 02:27:15;;;;;;;5.82;2.30;;;13.10;99.90;;;;;;5038256;28;20017;-71
2023/09/15 02:29:41;;;;;;;9.65;2.00;;;13.00;99.90;;;;;;5022967;28;20025;-68
2023/09/15 02:32:06;;;;;;;4.60;1.48;;;13.00;99.90;;;;;;5022948;28;20029;-68
2023/09/15 02:34:32;;;;;;;2.97;1.50;;;13.00;99.90;;;;;;5040792;28;20085;-68
2023/09/15 02:36:57;;;;;;;4.43;1.92;;;13.10;99.90;;;;;;5040555;28;20124;-68
2023/09/15 02:39:23;;;;;;;7.78;2.13;;;13.10;99.90;;;;;;5040564;28;20040;-67
2023/09/15 02:41:48;;;;;;;4.38;1.63;;;13.10;99.90;;;;;;5022694;28;20025;-68
2023/09/15 02:44:14;;;;;;;7.13;2.10;;;13.00;99.90;;;;;;5040118;28;20060;-68
2023/09/15 02:46:39;;;;;;;7.97;1.80;;;13.00;99.90;;;;;;5039928;28;20026;-68
2023/09/15 02:49:05;;;;;;;5.68;2.15;;;13.00;99.90;;;;;;5039992;28;20096;-67
2023/09/15 02:51:31;;;;;;;3.55;1.83;;;13.00;99.90;;;;;;5040174;28;20149;-68
2023/09/15 02:53:56;;;;;;;5.53;2.13;;;12.90;99.90;;;;;;5022484;28;20030;-67
2023/09/15 02:56:23;;;;;;;2.47;1.40;;;12.90;99.90;;;;;;5023465;28;20057;-67
2023/09/15 02:58:49;;;;;;;6.35;1.88;;;12.80;99.90;;;;;;5039792;28;20021;-68
2023/09/15 03:01:15;;;;;;;6.60;1.80;;;12.90;99.90;;;;;;5039997;28;20028;-71
2023/09/15 03:03:41;;;;;;;5.47;1.98;;;12.90;99.90;;;;;;5022794;28;20033;-66
2023/09/15 03:06:08;;;;;;;7.05;1.60;;;12.80;99.90;;;;;;5022216;28;20017;-69
2023/09/15 03:08:35;;;;;;;2.67;1.40;;;12.80;99.90;;;;;;5039677;28;20029;-70
2023/09/15 03:11:00;;;;;;;3.20;1.73;;;12.80;99.90;;;;;;5022193;28;20029;-69
2023/09/15 03:13:26;;;;;;;7.45;2.00;;;12.80;99.90;;;;;;5039818;28;20030;-69
2023/09/15 03:15:51;;;;;;;2.72;1.65;;;12.80;99.90;;;;;;5039693;28;20025;-69
2023/09/15 03:18:17;;;;;;;4.72;1.52;;;12.70;99.90;;;;;;5039325;28;20036;-70
2023/09/15 03:20:43;;;;;;;2.78;1.58;;;12.70;99.90;;;;;;5022304;28;20049;-68
2023/09/15 03:23:09;;;;;;;3.15;1.55;;;12.80;99.90;;;;;;5039345;28;20026;-67
2023/09/15 03:25:34;;;;;;;6.88;2.38;;;12.80;99.90;;;;;;5022698;28;20022;-68
2023/09/15 03:28:00;;;;;;;7.68;2.30;;;12.70;99.90;;;;;;5022707;28;20152;-67
2023/09/15 03:30:26;;;;;;;2.97;1.52;;;12.70;99.90;;;;;;5039297;28;20101;-66
2023/09/15 03:32:51;;;;;;;7.55;2.10;;;12.60;99.90;;;;;;5039487;28;20069;-67
2023/09/15 03:35:17;;;;;;;5.18;2.03;;;12.60;99.90;;;;;;5021721;28;20024;-67
2023/09/15 03:37:42;;;;;;;5.88;1.85;;;12.60;99.90;;;;;;5039321;28;20097;-69
2023/09/15 03:40:11;;;;;;;3.63;1.35;;;12.60;99.90;;;;;;5022636;28;20014;-69
2023/09/15 03:42:37;;;;;;;10.45;3.53;;;12.60;99.90;;;;;;5038976;28;20028;-69
2023/09/15 03:45:06;;;;;;;8.93;1.80;;;12.60;99.90;;;;;;5039014;28;20029;-69
2023/09/15 03:47:32;;;;;;;4.57;1.67;;;12.60;99.90;;;;;;5021526;28;20026;-69
2023/09/15 03:49:58;;;;;;;5.70;1.88;;;12.50;99.90;;;;;;5038795;28;20100;-69
2023/09/15 03:52:23;;;;;;;3.67;1.83;;;12.50;99.90;;;;;;5038929;28;20053;-70
2023/09/15 03:54:49;;;;;;;3.65;1.95;;;12.50;99.90;;;;;;5022186;28;20057;-69
2023/09/15 03:57:14;;;;;;;6.88;1.75;;;12.50;99.90;;;;;;5038710;28;20032;-69
2023/09/15 03:59:40;;;;;;;6.30;1.92;;;12.50;99.90;;;;;;5022293;28;20025;-69
2023/09/15 04:02:05;;;;;;;6.03;1.83;;;12.50;99.90;;;;;;5021632;28;20036;-68
2023/09/15 04:04:31;;;;;;;7.45;2.20;;;12.40;99.90;;;;;;5021192;28;20028;-67
2023/09/15 04:06:56;;;;;;;5.10;1.83;;;12.30;99.90;;;;;;5038443;28;20029;-68
2023/09/15 04:09:25;;;;;;;5.82;1.60;;;12.30;99.90;;;;;;5038550;28;20033;-67
2023/09/15 04:11:56;;;;;;;3.20;1.55;;;12.40;99.90;;;;;;5021766;28;20060;-68
2023/09/15 04:14:22;;;;;;;3.40;2.00;;;12.50;99.90;;;;;;5021034;28;20075;-67
2023/09/15 04:16:47;;;;;;;8.68;2.47;;;12.50;99.90;;;;;;5038517;28;20041;-68
2023/09/15 04:19:13;;;;;;;5.15;1.98;;;12.50;99.90;;;;;;5038257;28;20022;-67
2023/09/15 04:21:39;;;;;;;5.20;2.08;;;12.40;99.90;;;;;;5021390;28;20022;-67
2023/09/15 04:24:06;;;;;;;12.10;1.90;;;12.40;99.90;;;;;;5038239;28;20098;-69
2023/09/15 04:26:31;;;;;;;7.00;2.35;;;12.20;99.90;;;;;;5020648;28;20017;-69
2023/09/15 04:28:58;;;;;;;2.50;1.67;;;12.20;99.90;;;;;;5038365;28;20022;-70
2023/09/15 04:31:23;;;;;;;7.40;1.92;;;12.20;99.90;;;;;;5020964;28;20029;-67
2023/09/15 04:33:49;;;;;;;4.60;1.90;;;12.30;99.90;;;;;;5021134;28;20075;-69
2023/09/15 04:36:16;;;;;;;6.68;2.05;;;12.40;99.90;;;;;;5021223;28;20033;-70
2023/09/15 04:38:42;;;;;;;6.18;2.08;;;12.40;99.90;;;;;;5037878;28;20040;-69
2023/09/15 04:41:07;;;;;;;6.78;2.20;;;12.40;99.90;;;;;;5038501;28;20025;-70
2023/09/15 04:43:33;;;;;;;4.68;1.67;;;12.40;99.90;;;;;;5037809;28;20067;-68
2023/09/15 04:45:59;;;;;;;3.45;1.67;;;12.40;99.90;;;;;;5037913;28;20022;-67
2023/09/15 04:48:24;;;;;;;3.35;1.70;;;12.40;99.90;;;;;;5038294;28;20025;-67
2023/09/15 04:50:50;;;;;;;4.47;1.52;;;12.40;99.90;;;;;;5019866;28;20029;-66
2023/09/15 04:53:15;;;;;;;5.53;1.80;;;12.40;99.90;;;;;;5037748;28;20025;-67
2023/09/15 04:55:41;;;;;;;7.38;2.08;;;12.40;99.90;;;;;;5037551;28;20037;-67
2023/09/15 04:58:07;;;;;;;7.53;1.75;;;12.40;99.90;;;;;;5020285;28;20029;-66
2023/09/15 05:00:34;;;;;;;3.53;1.50;;;12.40;99.90;;;;;;5020180;28;20047;-67
2023/09/15 05:03:01;;;;;;;7.72;2.15;;;12.30;99.90;;;;;;5037378;28;20079;-67
2023/09/15 05:05:26;;;;;;;9.23;2.25;;;12.30;99.90;;;;;;5037500;28;20024;-66
2023/09/15 05:07:52;;;;;;;8.60;2.17;;;12.30;99.90;;;;;;5037612;28;20022;-67
2023/09/15 05:10:18;;;;;;;7.88;1.95;;;12.30;99.90;;;;;;5020084;28;20025;-66
2023/09/15 05:12:44;;;;;;;3.75;1.60;;;12.40;99.90;;;;;;5037374;28;20156;-67
2023/09/15 05:15:10;;;;;;;9.43;2.63;;;12.30;99.90;;;;;;5020400;28;20069;-67
2023/09/15 05:17:36;;;;;;;3.60;1.67;;;12.30;99.90;;;;;;5037573;28;20049;-67
2023/09/15 05:20:02;;;;;;;5.43;1.98;;;12.30;99.90;;;;;;5019936;28;20075;-67
2023/09/15 05:22:28;;;;;;;3.33;1.48;;;12.30;99.90;;;;;;5020196;28;20141;-67
2023/09/15 05:24:55;;;;;;;6.53;2.75;;;12.30;99.90;;;;;;5019824;28;20108;-66
2023/09/15 05:27:20;;;;;;;8.20;2.00;;;12.30;99.90;;;;;;5019820;28;20017;-67
2023/09/15 05:29:46;;;;;;;8.38;2.20;;;12.30;99.90;;;;;;5037114;28;20021;-67
2023/09/15 05:32:11;;;;;;;5.13;2.35;;;12.30;99.90;;;;;;5037291;28;20033;-67
2023/09/15 05:34:38;;;;;;;4.35;1.90;;;12.20;99.90;;;;;;5037005;28;20021;-67
2023/09/15 05:37:04;;;;;;;4.72;2.13;;;12.10;99.90;;;;;;5060354;22;20133;-67
2023/09/15 05:39:31;;;;;;;3.47;1.70;;;12.20;99.90;;;;;;5019953;28;20060;-67
2023/09/15 05:41:56;;;;;;;3.83;2.08;;;12.20;99.90;;;;;;5037050;28;20036;-67
2023/09/15 05:44:22;;;;;;;4.97;1.90;;;12.20;99.90;;;;;;5037023;28;20025;-67
2023/09/15 05:46:48;;;;;;;4.85;1.90;;;12.30;99.90;;;;;;5019500;28;20021;-67
2023/09/15 05:49:13;;;;;;;5.32;1.90;;;12.30;99.90;;;;;;5036940;28;20025;-67
2023/09/15 05:51:39;;;;;;;3.67;1.85;;;12.30;99.90;;;;;;5036919;28;20120;-67
2023/09/15 05:54:04;;;;;;;6.25;2.60;;;12.40;99.90;;;;;;5019856;28;20025;-67
2023/09/15 05:56:31;;;;;;;3.95;2.00;;;12.40;99.90;;;;;;5019359;28;20029;-67
2023/09/15 05:58:58;;;;;;;4.90;1.85;;;12.40;99.90;;;;;;5019730;28;20026;-67
2023/09/15 06:01:23;;;;;;;6.28;1.67;;;12.40;99.90;;;;;;5019573;28;20124;-67
2023/09/15 06:03:49;;;;;;;4.63;1.80;;;12.20;99.90;;;;;;5023375;28;20018;-67
2023/09/15 06:06:16;;;;;;;5.05;1.60;;;12.10;99.90;;;;;;5040799;28;20028;-67
2023/09/15 06:08:42;;;;;;;13.63;3.97;;;12.20;99.90;;;;;;5040901;28;20141;-67
2023/09/15 06:11:07;;;;;;;4.53;1.70;;;12.30;99.90;;;;;;5041288;28;20033;-67
2023/09/15 06:13:34;;;;;;;4.55;1.60;;;12.40;99.90;;;;;;5041445;28;20029;-67
2023/09/15 06:16:00;;;;;;;2.72;1.95;;;12.20;99.90;;;;;;5040621;28;20049;-67
2023/09/15 06:18:25;;;;;;;6.50;2.15;;;12.30;99.90;;;;;;5040948;28;20043;-67
2023/09/15 06:20:55;;;;;;;4.63;1.73;;;12.30;99.90;;;;;;5023065;28;20112;-67
2023/09/15 06:23:21;;;;;;;4.03;2.03;;;12.40;99.90;;;;;;5040670;28;20028;-67
2023/09/15 06:25:46;;;;;;;3.97;2.10;;;12.50;99.90;;;;;;5040424;28;20018;-67
2023/09/15 06:28:12;;;;;;;3.00;1.77;;;12.50;99.90;;;;;;5023334;28;20022;-67
2023/09/15 06:30:37;;;;;;;3.00;1.95;;;12.60;99.90;;;;;;5022966;28;20017;-67
2023/09/15 06:33:03;;;;;;;4.45;1.98;;;12.60;99.90;;;;;;5023644;28;20091;-67
2023/09/15 06:35:29;;;;;;;8.02;2.22;;;12.70;99.90;;;;;;5023197;28;20110;-67
2023/09/15 06:37:54;;;;;;;5.40;1.80;;;12.80;99.90;;;;;;5040560;28;20037;-67
2023/09/15 06:40:20;;;;;;;5.50;2.30;;;12.80;99.90;;;;;;5023166;28;20021;-67
2023/09/15 06:42:46;;;;;;;12.45;2.72;;;12.90;99.90;;;;;;5022790;28;20036;-67
2023/09/15 06:45:11;;;;;;;3.08;1.67;;;12.80;99.90;;;;;;5022673;28;20049;-67
2023/09/15 06:47:37;;;;;;;3.85;2.00;;;12.80;99.90;;;;;;5039934;28;20029;-67
2023/09/15 06:50:03;;;;;;;5.85;1.50;;;12.90;99.90;;;;;;5022824;28;20029;-67
2023/09/15 06:52:30;;;;;;;10.23;2.00;;;13.00;99.90;;;;;;5039995;28;20025;-67
2023/09/15 06:54:56;;;;;;;5.68;1.80;;;13.20;99.90;;;;;;5040137;28;20028;-67
2023/09/15 06:57:21;;;;;;;7.35;1.98;;;13.30;99.90;;;;;;5022442;28;20029;-67
2023/09/15 06:59:47;;;;;;;7.20;1.98;;;13.10;99.90;;;;;;5039808;28;20025;-67
2023/09/15 07:02:12;;;;;;;5.43;2.60;;;13.10;99.90;;;;;;5039757;28;20071;-67
2023/09/15 07:04:38;;;;;;;6.85;1.92;;;13.10;99.90;;;;;;5022484;28;20108;-67
2023/09/15 07:07:04;;;;;;;3.72;1.92;;;13.20;99.90;;;;;;5039712;28;20047;-67
2023/09/15 07:09:29;;;;;;;6.30;1.83;;;13.30;99.90;;;;;;5022305;28;20112;-71
2023/09/15 07:11:55;;;;;;;6.07;2.13;;;13.40;99.90;;;;;;5023093;28;20106;-71
2023/09/15 07:14:20;;;;;;;5.80;2.40;;;13.50;99.90;;;;;;5039473;28;20025;-70
2023/09/15 07:16:46;;;;;;;6.15;2.10;;;13.50;99.90;;;;;;5022044;28;20030;-70
2023/09/15 07:19:12;;;;;;;4.22;1.98;;;13.50;99.90;;;;;;5022078;28;20021;-70
2023/09/15 07:21:40;;;;;;;10.90;2.10;;;13.50;99.90;;;;;;5021977;28;20021;-70
2023/09/15 07:24:07;;;;;;;4.13;1.90;;;13.50;99.90;;;;;;5021968;28;20053;-71
2023/09/15 07:26:32;;;;;;;4.03;2.15;;;13.70;99.90;;;;;;5021798;28;20045;-70
2023/09/15 07:28:58;;;;;;;4.38;2.45;;;14.00;99.90;;;;;;5039540;28;20018;-70
2023/09/15 07:31:23;;;;;;;7.80;2.45;;;14.20;99.90;;;;;;5039568;28;20037;-70
2023/09/15 07:33:49;;;;;;;8.10;2.40;;;14.20;99.90;;;;;;5039445;28;20116;-71
2023/09/15 07:36:14;;;;;;;6.63;2.30;;;14.30;99.90;;;;;;5022562;28;20029;-70
2023/09/15 07:38:40;;;;;;;11.95;3.28;;;14.30;99.90;;;;;;5022359;28;20033;-70
2023/09/15 07:41:06;;;;;;;6.85;3.17;;;14.50;99.90;;;;;;5022012;28;20032;-70
2023/09/15 07:43:31;;;;;;;6.93;2.80;;;14.50;99.90;;;;;;5021527;28;20018;-70
2023/09/15 07:45:57;;;;;;;4.85;2.20;;;14.60;99.90;;;;;;5021623;28;20116;-70
2023/09/15 07:48:23;;;;;;;4.63;2.70;;;14.50;99.90;;;;;;5039014;28;20060;-70
2023/09/15 07:50:50;;;;;;;6.40;2.55;;;14.60;99.90;;;;;;5039064;28;20025;-70
2023/09/15 07:53:16;;;;;;;5.35;2.50;;;14.80;99.90;;;;;;5038846;28;20026;-71
2023/09/15 07:55:42;;;;;;;4.85;2.20;;;14.90;99.90;;;;;;5038869;28;20026;-71
2023/09/15 07:58:07;;;;;;;6.35;2.58;;;14.90;99.90;;;;;;5038861;28;20025;-71
2023/09/15 08:00:33;;;;;;;7.60;2.38;;;15.00;99.90;;;;;;5038667;28;20029;-71
2023/09/15 08:02:59;;;;;;;2.60;2.22;;;15.10;99.90;;;;;;5039078;28;20032;-70
2023/09/15 08:05:24;;;;;;;5.03;2.30;;;15.20;99.90;;;;;;5021848;28;20026;-70
2023/09/15 08:07:50;;;;;;;8.55;2.70;;;15.30;99.90;;;;;;5021165;28;20022;-70
2023/09/15 08:10:18;;;;;;;5.93;3.17;;;15.30;99.90;;;;;;5021370;28;20116;-71
2023/09/15 08:12:44;;;;;;;7.43;2.83;;;15.40;99.90;;;;;;5021207;28;20032;-71
2023/09/15 08:15:10;;;;;;;6.25;1.98;;;15.40;99.90;;;;;;5021652;28;20021;-70
2023/09/15 08:17:36;;;;;;;5.38;2.72;;;15.50;99.90;;;;;;5020746;28;20025;-71
2023/09/15 08:20:03;;;;;;;7.90;2.80;;;15.60;99.90;;;;;;5038542;28;20120;-71
2023/09/15 08:22:29;;;;;;;6.95;2.50;;;15.70;99.90;;;;;;5020791;28;20053;-71
2023/09/15 08:24:55;;;;;;;9.05;2.35;;;15.80;99.90;;;;;;5020389;28;20017;-71
2023/09/15 08:27:21;;;;;;;6.05;2.25;;;15.90;99.90;;;;;;5038179;28;20024;-71
2023/09/15 08:29:46;;;;;;;4.18;2.28;;;16.00;99.90;;;;;;5038212;28;20048;-71
2023/09/15 08:32:13;;;;;;;9.68;3.00;;;16.10;99.90;;;;;;5038297;28;20017;-71
2023/09/15 08:34:41;;;;;;;8.30;2.40;;;16.20;99.90;;;;;;5038017;28;20036;-71
2023/09/15 08:37:06;;;;;;;6.15;2.50;;;16.20;99.90;;;;;;5038142;28;20033;-71
2023/09/15 08:39:32;;;;;;;4.03;2.50;;;16.20;99.90;;;;;;5037893;28;20038;-71
2023/09/15 08:42:01;;;;;;;7.03;2.40;;;16.30;99.90;;;;;;5037972;28;20083;-71
2023/09/15 08:44:30;;;;;;;6.13;3.00;;;16.40;99.90;;;;;;5037789;28;20049;-71
2023/09/15 08:46:56;;;;;;;3.83;2.50;;;16.50;99.90;;;;;;5020460;28;20024;-71
2023/09/15 08:49:23;;;;;;;6.40;2.72;;;16.50;99.90;;;;;;5020731;28;20156;-71
2023/09/15 08:51:50;;;;;;;4.82;2.67;;;16.60;99.90;;;;;;5037887;28;20109;-71
2023/09/15 08:54:16;;;;;;;3.85;2.40;;;16.60;99.90;;;;;;5037985;28;20083;-71
2023/09/15 08:56:44;;;;;;;4.90;2.38;;;16.70;99.90;;;;;;5037628;28;20033;-71
2023/09/15 08:59:10;;;;;;;5.15;2.72;;;16.80;99.90;;;;;;5020253;28;20116;-71
2023/09/15 09:01:36;;;;;;;5.90;2.63;;;16.90;99.90;;;;;;5020525;28;20060;-71
2023/09/15 09:04:01;;;;;;;5.30;2.53;;;17.00;99.90;;;;;;5037428;28;20013;-71
2023/09/15 09:06:27;;;;;;;8.90;3.67;;;17.20;99.90;;;;;;5020196;28;20025;-71
2023/09/15 09:08:54;;;;;;;4.25;2.67;;;17.30;99.90;;;;;;5037387;28;20017;-71
2023/09/15 09:11:20;;;;;;;10.38;3.80;;;17.40;99.90;;;;;;5020057;28;20032;-71
2023/09/15 09:13:52;;;;;;;5.28;3.45;;;17.60;99.90;;;;;;5020289;28;20021;-71
2023/09/15 09:16:20;;;;;;;8.65;3.22;;;17.60;99.90;;;;;;5037216;28;20032;-71
2023/09/15 09:19:00;;;;;;;6.60;3.88;;;17.70;99.90;;;;;;5037362;28;20049;-71
2023/09/15 09:21:27;;;;;;;7.72;3.90;;;17.80;99.90;;;;;;5019862;28;20030;-71
2023/09/15 09:23:52;;;;;;;5.18;3.38;;;18.00;99.90;;;;;;5037243;28;20029;-71
2023/09/15 09:26:18;;;;;;;7.75;3.55;;;18.20;99.90;;;;;;5020064;28;20067;-72
2023/09/15 09:28:44;;;;;;;8.30;3.28;;;18.10;99.90;;;;;;5037302;28;20029;-71
2023/09/15 09:31:10;;;;;;;6.20;3.30;;;18.30;99.90;;;;;;5037777;28;20018;-71
2023/09/15 09:33:37;;;;;;;8.18;3.10;;;18.40;99.90;;;;;;5037354;28;20030;-70
2023/09/15 09:36:16;;;;;;;4.22;3.20;;;18.60;99.90;;;;;;5036828;28;20047;-70
2023/09/15 09:38:44;;;;;;;8.20;3.55;;;18.80;99.90;;;;;;5020485;28;20037;-70
2023/09/15 09:41:10;;;;;;;7.20;3.70;;;19.00;99.90;;;;;;5019482;28;20025;-70
2023/09/15 09:43:38;;;;;;;5.50;3.35;;;19.10;99.90;;;;;;5037215;28;20049;-71
2023/09/15 09:46:05;;;;;;;6.75;3.13;;;19.20;99.90;;;;;;5019591;28;20025;-71
2023/09/15 09:48:33;;;;;;;4.97;3.30;;;19.20;99.90;;;;;;5037008;28;20014;-71
2023/09/15 09:51:00;;;;;;;7.15;3.47;;;19.20;99.90;;;;;;5019531;28;20048;-71
2023/09/15 09:53:33;;;;;;;7.50;3.13;;;19.30;99.90;;;;;;5036899;28;20091;-71
2023/09/15 09:56:03;;;;;;;5.25;3.72;;;19.60;99.90;;;;;;5037157;28;20047;-71
2023/09/15 09:58:31;;;;;;;6.35;3.42;;;19.60;99.90;;;;;;5019574;28;20061;-71
2023/09/15 10:00:56;;;;;;;7.70;3.50;;;19.60;99.90;;;;;;5020085;28;20034;-71
2023/09/15 10:03:23;;;;;;;7.18;3.35;;;19.70;99.90;;;;;;5020514;28;20082;-71
2023/09/15 10:05:49;;;;;;;5.28;3.42;;;20.00;99.90;;;;;;5037108;28;20029;-70
2023/09/15 10:08:15;;;;;;;5.50;3.28;;;20.40;99.90;;;;;;5019506;28;20021;-71
2023/09/15 10:10:44;;;;;;;5.90;3.58;;;20.40;99.90;;;;;;5019691;28;20040;-70
2023/09/15 10:13:10;;;;;;;9.68;4.13;;;20.40;99.90;;;;;;5036733;28;20018;-71
2023/09/15 10:15:38;;;;;;;6.50;3.38;;;20.30;99.90;;;;;;5036601;28;20156;-71
2023/09/15 10:18:05;;;;;;;4.88;3.40;;;20.60;99.90;;;;;;5036668;28;20053;-71
2023/09/15 10:20:32;;;;;;;4.53;3.17;;;20.70;99.90;;;;;;5020368;28;20045;-71
2023/09/15 10:22:59;;;;;;;4.45;3.35;;;20.90;99.90;;;;;;5036501;28;20022;-71
2023/09/15 10:25:24;;;;;;;6.00;3.80;;;21.20;99.90;;;;;;5036887;28;20080;-71
2023/09/15 10:27:50;;;;;;;5.47;2.70;;;21.50;99.90;;;;;;5036737;28;20068;-71
2023/09/15 10:30:16;;;;;;;4.97;3.45;;;21.60;99.90;;;;;;5036532;28;20032;-71
2023/09/15 10:32:43;;;;;;;3.55;2.97;;;21.80;99.90;;;;;;5019298;28;20032;-71
2023/09/15 10:35:11;;;;;;;10.65;3.13;;;22.10;99.90;;;;;;5036582;28;20025;-71
2023/09/15 10:37:42;;;;;;;6.32;2.88;;;22.10;99.90;;;;;;5019287;28;20045;-71
2023/09/15 10:40:08;;;;;;;6.88;3.33;;;22.00;99.90;;;;;;5036497;28;20068;-71
2023/09/15 10:42:34;;;;;;;3.72;3.05;;;22.10;99.90;;;;;;5036234;28;20026;-71
2023/09/15 10:45:10;;;;;;;5.22;3.35;;;22.20;99.90;;;;;;5019175;28;20018;-71
2023/09/15 10:47:36;;;;;;;5.68;3.35;;;23.40;99.90;;;;;;5037049;28;20018;-71
2023/09/15 10:50:04;;;;;;;6.38;3.10;;;23.30;99.90;;;;;;5040253;28;20025;-71
2023/09/15 10:52:37;;;;;;;5.07;2.92;;;23.30;99.90;;;;;;5023418;28;20032;-71
2023/09/15 10:55:04;;;;;;;5.30;3.15;;;23.10;99.90;;;;;;5039899;28;20029;-71
2023/09/15 10:57:33;;;;;;;4.97;3.10;;;23.80;99.90;;;;;;5022452;28;20025;-71
2023/09/15 10:59:59;;;;;;;5.72;4.05;;;23.70;99.90;;;;;;5039848;28;20022;-71
2023/09/15 11:02:26;;;;;;;8.90;3.78;;;23.50;99.90;;;;;;5039881;28;20033;-71
2023/09/15 11:04:51;;;;;;;6.10;3.10;;;23.40;99.90;;;;;;5040082;28;20045;-71
2023/09/15 11:07:19;;;;;;;4.07;3.10;;;23.40;99.90;;;;;;5023361;28;20018;-72
2023/09/15 11:09:45;;;;;;;3.80;2.70;;;23.60;99.90;;;;;;5022858;28;20030;-71
2023/09/15 11:12:13;;;;;;;3.90;2.85;;;23.70;99.90;;;;;;5022356;28;20029;-70
2023/09/15 11:14:39;;;;;;;5.45;2.85;;;23.90;99.90;;;;;;5022330;28;20029;-70
2023/09/15 11:17:05;;;;;;;5.22;3.00;;;24.00;99.90;;;;;;5022703;28;20026;-70
2023/09/15 11:19:33;;;;;;;9.95;2.90;;;24.10;99.90;;;;;;5039872;28;20104;-70
2023/09/15 11:22:05;;;;;;;3.15;2.47;;;24.30;99.90;;;;;;5022463;28;20029;-70
2023/09/15 11:24:32;;;;;;;3.08;2.17;;;24.50;99.90;;;;;;5022457;28;20032;-70
2023/09/15 11:27:00;;;;;;;10.52;5.57;;;24.80;99.90;;;;;;5021836;28;20105;-70
2023/09/15 11:29:27;;;;;;;3.35;2.40;;;25.10;99.90;;;;;;5022198;28;20026;-71
2023/09/15 11:31:54;;;;;;;6.93;3.95;;;24.90;99.90;;;;;;5022726;28;20029;-70
2023/09/15 11:34:20;;;;;;;6.18;2.53;;;24.80;99.90;;;;;;5022005;28;20034;-71
2023/09/15 11:36:47;;;;;;;4.30;2.35;;;24.80;99.90;;;;;;5022252;28;20077;-66
2023/09/15 11:39:15;;;;;;;5.10;2.60;;;24.90;99.90;;;;;;5021717;28;20037;-67
2023/09/15 11:41:53;;;;;;;6.30;2.22;;;25.50;99.90;;;;;;5039213;28;20109;-67
2023/09/15 11:44:20;;;;;;;3.20;2.60;;;25.30;99.90;;;;;;5039256;28;20100;-67
2023/09/15 11:46:47;;;;;;;3.40;2.08;;;25.10;99.90;;;;;;5039010;28;20039;-67
2023/09/15 11:49:14;;;;;;;2.10;1.90;;;25.20;99.90;;;;;;5039091;28;20083;-67
2023/09/15 11:51:40;;;;;;;3.10;2.00;;;25.60;99.90;;;;;;5021657;28;20048;-67
2023/09/15 11:54:06;;;;;;;4.07;3.08;;;25.70;99.90;;;;;;5022442;28;20029;-66
2023/09/15 11:56:32;;;;;;;5.75;2.95;;;25.20;99.90;;;;;;5039008;28;20024;-67
2023/09/15 11:58:58;;;;;;;2.80;2.13;;;25.10;99.90;;;;;;5021020;28;20080;-67
2023/09/15 12:01:24;;;;;;;3.30;2.65;;;25.20;99.90;;;;;;5038380;28;20025;-67
2023/09/15 12:03:51;;;;;;;9.18;2.60;;;25.30;99.90;;;;;;5021203;28;20056;-67
2023/09/15 12:06:18;;;;;;;3.20;2.90;;;26.20;99.90;;;;;;5021606;28;20108;-64
2023/09/15 12:08:47;;;;;;;2.70;2.30;;;27.00;99.90;;;;;;5038671;28;20025;-65
2023/09/15 12:11:13;;;;;;;4.07;2.63;;;26.90;99.90;;;;;;5038815;28;20018;-65
2023/09/15 12:13:39;;;;;;;2.75;1.90;;;27.00;99.90;;;;;;5038531;28;20048;-65
2023/09/15 12:16:05;;;;;;;3.53;2.00;;;27.00;99.90;;;;;;5038422;28;20029;-65
2023/09/15 12:18:37;;;;;;;4.22;2.22;;;27.10;99.90;;;;;;5021039;28;20025;-65
2023/09/15 12:21:11;;;;;;;2.85;2.00;;;26.80;99.90;;;;;;5038267;28;20030;-64
2023/09/15 12:23:36;;;;;;;2.72;2.13;;;26.60;99.90;;;;;;5021039;28;20055;-65
2023/09/15 12:26:03;;;;;;;4.07;2.00;;;26.70;99.90;;;;;;5020640;28;20112;-65
2023/09/15 12:28:29;;;;;;;3.28;2.05;;;26.80;99.90;;;;;;5021276;28;20052;-64
2023/09/15 12:30:57;;;;;;;2.55;2.08;;;26.60;99.90;;;;;;5020852;28;20091;-65
2023/09/15 12:33:24;;;;;;;5.88;2.10;;;26.30;99.90;;;;;;5020651;28;20022;-65
2023/09/15 12:35:50;;;;;;;9.60;3.05;;;26.70;99.90;;;;;;5038097;28;20079;-65
2023/09/15 12:38:17;;;;;;;3.55;2.13;;;26.50;99.90;;;;;;5037890;28;20037;-65
2023/09/15 12:40:48;;;;;;;6.15;1.90;;;26.70;99.90;;;;;;5038035;28;20075;-65
2023/09/15 12:43:13;;;;;;;;;;;27.30;99.90;;;;;;5021134;28;20108;-65